sensor_id;sensor_type;location;lat;lon;timestamp;pressure;altitude;pressure_sealevel;temperature;humidity
76592;BME280;65481;47.600;19.682;2024-01-06T00:01:51;99418.00;;;5.24;100.00
76592;BME280;65481;47.600;19.682;2024-01-06T00:06:53;99419.19;;;5.28;100.00
76592;BME280;65481;47.600;19.682;2024-01-06T00:11:54;99404.28;;;5.28;100.00
76592;BME280;65481;47.600;19.682;2024-01-06T00:16:54;99397.19;;;5.36;100.00
76592;BME280;65481;47.600;19.682;2024-01-06T00:21:55;99407.88;;;5.34;100.00
76592;BME280;65481;47.600;19.682;2024-01-06T00:26:55;99394.63;;;5.29;100.00
76592;BME280;65481;47.600;19.682;2024-01-06T00:31:55;99403.47;;;5.28;100.00
76592;BME280;65481;47.600;19.682;2024-01-06T00:36:56;99404.50;;;5.27;100.00
76592;BME280;65481;47.600;19.682;2024-01-06T00:41:56;99395.91;;;5.20;100.00
76592;BME280;65481;47.600;19.682;2024-01-06T00:46:58;99388.25;;;5.18;100.00
76592;BME280;65481;47.600;19.682;2024-01-06T00:51:59;99385.22;;;5.21;100.00
76592;BME280;65481;47.600;19.682;2024-01-06T00:56:59;99385.59;;;5.25;100.00
76592;BME280;65481;47.600;19.682;2024-01-06T01:02:00;99365.69;;;5.24;100.00
76592;BME280;65481;47.600;19.682;2024-01-06T01:07:01;99359.06;;;5.21;100.00
76592;BME280;65481;47.600;19.682;2024-01-06T01:12:02;99356.03;;;5.24;100.00
76592;BME280;65481;47.600;19.682;2024-01-06T01:17:03;99361.47;;;5.23;100.00
76592;BME280;65481;47.600;19.682;2024-01-06T01:22:04;99355.22;;;5.24;100.00
76592;BME280;65481;47.600;19.682;2024-01-06T01:27:05;99338.78;;;5.17;100.00
76592;BME280;65481;47.600;19.682;2024-01-06T01:32:06;99332.59;;;5.11;100.00
76592;BME280;65481;47.600;19.682;2024-01-06T01:37:06;99329.81;;;5.06;100.00
76592;BME280;65481;47.600;19.682;2024-01-06T01:42:08;99326.69;;;4.97;100.00
76592;BME280;65481;47.600;19.682;2024-01-06T01:47:08;99325.91;;;4.90;100.00
76592;BME280;65481;47.600;19.682;2024-01-06T01:52:09;99335.94;;;4.93;100.00
76592;BME280;65481;47.600;19.682;2024-01-06T01:57:11;99346.03;;;4.89;100.00
76592;BME280;65481;47.600;19.682;2024-01-06T02:02:13;99345.22;;;4.89;100.00
76592;BME280;65481;47.600;19.682;2024-01-06T02:07:13;99343.00;;;4.92;100.00
76592;BME280;65481;47.600;19.682;2024-01-06T02:12:14;99322.66;;;4.94;100.00
76592;BME280;65481;47.600;19.682;2024-01-06T02:17:14;99305.81;;;4.90;100.00
76592;BME280;65481;47.600;19.682;2024-01-06T02:22:16;99309.16;;;4.97;100.00
76592;BME280;65481;47.600;19.682;2024-01-06T02:27:16;99313.31;;;5.05;100.00
76592;BME280;65481;47.600;19.682;2024-01-06T02:32:17;99306.66;;;5.09;100.00
76592;BME280;65481;47.600;19.682;2024-01-06T02:37:18;99296.13;;;5.16;100.00
76592;BME280;65481;47.600;19.682;2024-01-06T02:42:19;99305.16;;;5.20;100.00
76592;BME280;65481;47.600;19.682;2024-01-06T02:47:19;99323.22;;;5.28;100.00
76592;BME280;65481;47.600;19.682;2024-01-06T02:52:20;99302.72;;;5.25;100.00
76592;BME280;65481;47.600;19.682;2024-01-06T02:57:23;99304.09;;;5.28;100.00
76592;BME280;65481;47.600;19.682;2024-01-06T03:02:24;99289.75;;;5.30;100.00
76592;BME280;65481;47.600;19.682;2024-01-06T03:07:24;99281.72;;;5.32;100.00
76592;BME280;65481;47.600;19.682;2024-01-06T03:12:25;99280.38;;;5.23;100.00
76592;BME280;65481;47.600;19.682;2024-01-06T03:17:26;99275.81;;;5.18;100.00
76592;BME280;65481;47.600;19.682;2024-01-06T03:22:26;99260.13;;;5.18;100.00
76592;BME280;65481;47.600;19.682;2024-01-06T03:27:27;99249.47;;;5.20;100.00
76592;BME280;65481;47.600;19.682;2024-01-06T03:32:27;99261.66;;;5.26;100.00
76592;BME280;65481;47.600;19.682;2024-01-06T03:37:28;99261.22;;;5.29;100.00
76592;BME280;65481;47.600;19.682;2024-01-06T03:42:29;99252.94;;;5.32;100.00
76592;BME280;65481;47.600;19.682;2024-01-06T03:47:29;99238.50;;;5.29;100.00
76592;BME280;65481;47.600;19.682;2024-01-06T03:52:30;99241.63;;;5.38;100.00
76592;BME280;65481;47.600;19.682;2024-01-06T03:57:30;99240.56;;;5.39;100.00
76592;BME280;65481;47.600;19.682;2024-01-06T04:02:31;99226.88;;;5.44;100.00
76592;BME280;65481;47.600;19.682;2024-01-06T04:07:31;99229.84;;;5.48;100.00
76592;BME280;65481;47.600;19.682;2024-01-06T04:12:32;99226.44;;;5.47;100.00
76592;BME280;65481;47.600;19.682;2024-01-06T04:17:32;99222.78;;;5.48;100.00
76592;BME280;65481;47.600;19.682;2024-01-06T04:22:33;99226.78;;;5.51;100.00
76592;BME280;65481;47.600;19.682;2024-01-06T04:27:33;99244.66;;;5.54;100.00
76592;BME280;65481;47.600;19.682;2024-01-06T04:32:35;99263.56;;;5.56;100.00
76592;BME280;65481;47.600;19.682;2024-01-06T04:37:35;99273.81;;;5.57;100.00
76592;BME280;65481;47.600;19.682;2024-01-06T04:42:36;99268.81;;;5.56;100.00
76592;BME280;65481;47.600;19.682;2024-01-06T04:47:36;99261.75;;;5.56;100.00
76592;BME280;65481;47.600;19.682;2024-01-06T04:52:36;99262.91;;;5.60;100.00
76592;BME280;65481;47.600;19.682;2024-01-06T04:57:37;99277.81;;;5.60;100.00
76592;BME280;65481;47.600;19.682;2024-01-06T05:02:37;99272.94;;;5.64;100.00
76592;BME280;65481;47.600;19.682;2024-01-06T05:07:38;99262.75;;;5.74;100.00
76592;BME280;65481;47.600;19.682;2024-01-06T05:12:38;99267.19;;;5.73;100.00
76592;BME280;65481;47.600;19.682;2024-01-06T05:17:39;99256.78;;;5.67;100.00
76592;BME280;65481;47.600;19.682;2024-01-06T05:22:39;99264.88;;;5.65;100.00
76592;BME280;65481;47.600;19.682;2024-01-06T05:27:40;99265.31;;;5.62;100.00
76592;BME280;65481;47.600;19.682;2024-01-06T05:32:40;99258.47;;;5.61;100.00
76592;BME280;65481;47.600;19.682;2024-01-06T05:37:41;99245.59;;;5.59;100.00
76592;BME280;65481;47.600;19.682;2024-01-06T05:42:41;99250.50;;;5.56;100.00
76592;BME280;65481;47.600;19.682;2024-01-06T05:47:42;99265.88;;;5.64;100.00
76592;BME280;65481;47.600;19.682;2024-01-06T05:52:42;99264.28;;;5.63;100.00
76592;BME280;65481;47.600;19.682;2024-01-06T05:57:43;99258.47;;;5.61;100.00
76592;BME280;65481;47.600;19.682;2024-01-06T06:02:43;99254.56;;;5.52;100.00
76592;BME280;65481;47.600;19.682;2024-01-06T06:07:45;99258.84;;;5.46;100.00
76592;BME280;65481;47.600;19.682;2024-01-06T06:12:46;99272.47;;;5.48;100.00
76592;BME280;65481;47.600;19.682;2024-01-06T06:17:46;99272.56;;;5.41;100.00
76592;BME280;65481;47.600;19.682;2024-01-06T06:22:47;99272.13;;;5.44;100.00
76592;BME280;65481;47.600;19.682;2024-01-06T06:27:47;99270.47;;;5.50;100.00
76592;BME280;65481;47.600;19.682;2024-01-06T06:32:48;99269.81;;;5.55;100.00
76592;BME280;65481;47.600;19.682;2024-01-06T06:37:48;99270.19;;;5.58;100.00
76592;BME280;65481;47.600;19.682;2024-01-06T06:42:49;99281.38;;;5.66;100.00
76592;BME280;65481;47.600;19.682;2024-01-06T06:47:50;99283.34;;;5.70;100.00
76592;BME280;65481;47.600;19.682;2024-01-06T06:52:51;99286.97;;;5.69;100.00
76592;BME280;65481;47.600;19.682;2024-01-06T06:57:53;99286.66;;;5.78;100.00
76592;BME280;65481;47.600;19.682;2024-01-06T07:02:54;99298.66;;;5.85;100.00
76592;BME280;65481;47.600;19.682;2024-01-06T07:07:54;99306.91;;;5.89;100.00
76592;BME280;65481;47.600;19.682;2024-01-06T07:12:55;99311.69;;;5.92;100.00
76592;BME280;65481;47.600;19.682;2024-01-06T07:17:55;99299.03;;;5.89;100.00
76592;BME280;65481;47.600;19.682;2024-01-06T07:22:56;99285.38;;;5.87;100.00
76592;BME280;65481;47.600;19.682;2024-01-06T07:27:56;99289.88;;;5.80;100.00
76592;BME280;65481;47.600;19.682;2024-01-06T07:32:57;99292.72;;;5.78;100.00
76592;BME280;65481;47.600;19.682;2024-01-06T07:37:58;99286.97;;;5.69;100.00
76592;BME280;65481;47.600;19.682;2024-01-06T07:42:59;99275.34;;;5.65;100.00
76592;BME280;65481;47.600;19.682;2024-01-06T07:47:59;99277.94;;;5.65;100.00
76592;BME280;65481;47.600;19.682;2024-01-06T07:53:00;99249.59;;;5.62;100.00
76592;BME280;65481;47.600;19.682;2024-01-06T07:58:00;99246.41;;;5.60;100.00
76592;BME280;65481;47.600;19.682;2024-01-06T08:03:01;99250.19;;;5.64;100.00
76592;BME280;65481;47.600;19.682;2024-01-06T08:08:03;99260.38;;;5.72;100.00
76592;BME280;65481;47.600;19.682;2024-01-06T08:13:04;99260.94;;;5.74;100.00
76592;BME280;65481;47.600;19.682;2024-01-06T08:18:05;99274.59;;;5.76;100.00
76592;BME280;65481;47.600;19.682;2024-01-06T08:23:05;99274.97;;;5.80;100.00
76592;BME280;65481;47.600;19.682;2024-01-06T08:28:06;99282.81;;;5.80;100.00
76592;BME280;65481;47.600;19.682;2024-01-06T08:33:06;99272.72;;;5.84;100.00
76592;BME280;65481;47.600;19.682;2024-01-06T08:38:07;99275.91;;;5.86;100.00
76592;BME280;65481;47.600;19.682;2024-01-06T08:43:07;99271.69;;;5.85;100.00
76592;BME280;65481;47.600;19.682;2024-01-06T08:48:08;99271.47;;;5.86;100.00
76592;BME280;65481;47.600;19.682;2024-01-06T08:53:09;99269.13;;;5.97;100.00
76592;BME280;65481;47.600;19.682;2024-01-06T08:58:09;99260.34;;;6.10;100.00
76592;BME280;65481;47.600;19.682;2024-01-06T09:03:10;99260.84;;;6.18;100.00
76592;BME280;65481;47.600;19.682;2024-01-06T09:08:12;99256.19;;;6.32;100.00
76592;BME280;65481;47.600;19.682;2024-01-06T09:13:13;99254.28;;;6.40;100.00
76592;BME280;65481;47.600;19.682;2024-01-06T09:18:13;99268.66;;;6.49;100.00
76592;BME280;65481;47.600;19.682;2024-01-06T09:23:14;99265.13;;;6.55;100.00
76592;BME280;65481;47.600;19.682;2024-01-06T09:28:14;99259.94;;;6.67;100.00
76592;BME280;65481;47.600;19.682;2024-01-06T09:33:15;99253.69;;;6.80;100.00
76592;BME280;65481;47.600;19.682;2024-01-06T09:38:18;99244.78;;;6.81;100.00
76592;BME280;65481;47.600;19.682;2024-01-06T09:43:19;99238.28;;;6.95;100.00
76592;BME280;65481;47.600;19.682;2024-01-06T09:48:20;99230.66;;;7.06;100.00
76592;BME280;65481;47.600;19.682;2024-01-06T09:53:28;99220.50;;;7.09;100.00
76592;BME280;65481;47.600;19.682;2024-01-06T09:58:34;99215.16;;;7.04;100.00
76592;BME280;65481;47.600;19.682;2024-01-06T10:03:36;99222.69;;;7.01;100.00
76592;BME280;65481;47.600;19.682;2024-01-06T10:08:37;99229.53;;;7.02;100.00
76592;BME280;65481;47.600;19.682;2024-01-06T10:13:40;99236.81;;;7.00;100.00
76592;BME280;65481;47.600;19.682;2024-01-06T10:18:41;99234.66;;;7.08;100.00
76592;BME280;65481;47.600;19.682;2024-01-06T10:23:42;99237.84;;;6.99;100.00
76592;BME280;65481;47.600;19.682;2024-01-06T10:28:43;99230.53;;;6.89;100.00
76592;BME280;65481;47.600;19.682;2024-01-06T10:33:43;99221.09;;;6.88;100.00
76592;BME280;65481;47.600;19.682;2024-01-06T10:38:44;99218.91;;;6.96;100.00
76592;BME280;65481;47.600;19.682;2024-01-06T10:43:46;99211.25;;;6.95;100.00
76592;BME280;65481;47.600;19.682;2024-01-06T10:48:47;99203.75;;;6.99;100.00
76592;BME280;65481;47.600;19.682;2024-01-06T10:53:50;99194.97;;;6.93;100.00
76592;BME280;65481;47.600;19.682;2024-01-06T10:58:53;99197.03;;;6.91;100.00
76592;BME280;65481;47.600;19.682;2024-01-06T11:03:54;99190.41;;;6.88;100.00
76592;BME280;65481;47.600;19.682;2024-01-06T11:09:13;99187.78;;;7.00;100.00
76592;BME280;65481;47.600;19.682;2024-01-06T11:14:19;99176.72;;;6.98;100.00
76592;BME280;65481;47.600;19.682;2024-01-06T11:24:37;99154.81;;;6.92;100.00
76592;BME280;65481;47.600;19.682;2024-01-06T11:29:43;99157.78;;;6.96;100.00
76592;BME280;65481;47.600;19.682;2024-01-06T11:34:47;99146.63;;;7.01;100.00
76592;BME280;65481;47.600;19.682;2024-01-06T11:39:50;99139.91;;;6.93;100.00
76592;BME280;65481;47.600;19.682;2024-01-06T11:44:50;99137.38;;;6.86;100.00
76592;BME280;65481;47.600;19.682;2024-01-06T11:49:54;99132.50;;;6.78;100.00
76592;BME280;65481;47.600;19.682;2024-01-06T11:54:55;99118.69;;;6.82;100.00
76592;BME280;65481;47.600;19.682;2024-01-06T11:59:56;99099.56;;;6.82;100.00
76592;BME280;65481;47.600;19.682;2024-01-06T12:04:57;99100.56;;;6.93;100.00
76592;BME280;65481;47.600;19.682;2024-01-06T12:10:02;99107.50;;;6.99;100.00
76592;BME280;65481;47.600;19.682;2024-01-06T12:15:03;99112.03;;;7.04;100.00
76592;BME280;65481;47.600;19.682;2024-01-06T12:20:04;99120.72;;;7.04;100.00
76592;BME280;65481;47.600;19.682;2024-01-06T12:25:05;99120.34;;;7.12;100.00
76592;BME280;65481;47.600;19.682;2024-01-06T12:30:15;99104.50;;;7.19;100.00
76592;BME280;65481;47.600;19.682;2024-01-06T12:35:17;99103.13;;;7.17;100.00
76592;BME280;65481;47.600;19.682;2024-01-06T12:40:17;99098.34;;;7.13;100.00
76592;BME280;65481;47.600;19.682;2024-01-06T12:45:20;99101.09;;;7.07;100.00
76592;BME280;65481;47.600;19.682;2024-01-06T12:50:20;99103.97;;;7.05;100.00
76592;BME280;65481;47.600;19.682;2024-01-06T12:55:20;99095.06;;;7.06;100.00
76592;BME280;65481;47.600;19.682;2024-01-06T13:00:21;99079.00;;;7.03;100.00
76592;BME280;65481;47.600;19.682;2024-01-06T13:05:21;99073.66;;;6.97;100.00
76592;BME280;65481;47.600;19.682;2024-01-06T13:10:23;99074.09;;;6.94;100.00
76592;BME280;65481;47.600;19.682;2024-01-06T13:15:23;99077.19;;;6.91;100.00
76592;BME280;65481;47.600;19.682;2024-01-06T13:20:24;99084.03;;;6.92;100.00
76592;BME280;65481;47.600;19.682;2024-01-06T13:25:24;99095.88;;;6.95;100.00
76592;BME280;65481;47.600;19.682;2024-01-06T13:30:25;99101.69;;;6.97;100.00
76592;BME280;65481;47.600;19.682;2024-01-06T13:35:26;99090.41;;;6.96;100.00
76592;BME280;65481;47.600;19.682;2024-01-06T13:40:26;99087.78;;;6.96;100.00
76592;BME280;65481;47.600;19.682;2024-01-06T13:45:27;99084.59;;;6.94;100.00
76592;BME280;65481;47.600;19.682;2024-01-06T13:50:30;99078.06;;;6.97;100.00
76592;BME280;65481;47.600;19.682;2024-01-06T13:55:30;99078.78;;;6.92;100.00
76592;BME280;65481;47.600;19.682;2024-01-06T14:00:31;99082.44;;;6.91;100.00
76592;BME280;65481;47.600;19.682;2024-01-06T14:05:31;99075.91;;;6.94;100.00
76592;BME280;65481;47.600;19.682;2024-01-06T14:10:33;99066.69;;;6.91;100.00
76592;BME280;65481;47.600;19.682;2024-01-06T14:15:34;99058.25;;;6.89;100.00
76592;BME280;65481;47.600;19.682;2024-01-06T14:20:36;99059.06;;;6.90;100.00
76592;BME280;65481;47.600;19.682;2024-01-06T14:25:38;99074.00;;;6.89;100.00
76592;BME280;65481;47.600;19.682;2024-01-06T14:30:39;99071.72;;;6.93;100.00
76592;BME280;65481;47.600;19.682;2024-01-06T14:35:39;99048.91;;;6.93;100.00
76592;BME280;65481;47.600;19.682;2024-01-06T14:40:42;99053.97;;;6.83;100.00
76592;BME280;65481;47.600;19.682;2024-01-06T14:45:42;99070.81;;;6.87;100.00
76592;BME280;65481;47.600;19.682;2024-01-06T14:50:43;99080.25;;;6.88;100.00
76592;BME280;65481;47.600;19.682;2024-01-06T14:55:43;99067.41;;;6.87;100.00
76592;BME280;65481;47.600;19.682;2024-01-06T15:00:44;99068.44;;;6.86;100.00
76592;BME280;65481;47.600;19.682;2024-01-06T15:05:44;99068.09;;;6.82;100.00
76592;BME280;65481;47.600;19.682;2024-01-06T15:10:45;99067.06;;;6.83;100.00
76592;BME280;65481;47.600;19.682;2024-01-06T15:15:46;99059.53;;;6.87;100.00
76592;BME280;65481;47.600;19.682;2024-01-06T15:20:48;99061.34;;;6.86;100.00
76592;BME280;65481;47.600;19.682;2024-01-06T15:25:53;99062.94;;;6.87;100.00
76592;BME280;65481;47.600;19.682;2024-01-06T15:30:54;99061.13;;;6.88;100.00
76592;BME280;65481;47.600;19.682;2024-01-06T15:35:55;99055.63;;;6.89;100.00
76592;BME280;65481;47.600;19.682;2024-01-06T15:40:55;99054.59;;;6.90;100.00
76592;BME280;65481;47.600;19.682;2024-01-06T15:45:56;99044.00;;;6.85;100.00
76592;BME280;65481;47.600;19.682;2024-01-06T15:50:56;99044.59;;;6.87;100.00
76592;BME280;65481;47.600;19.682;2024-01-06T15:55:57;99035.69;;;6.88;100.00
76592;BME280;65481;47.600;19.682;2024-01-06T16:00:57;99040.38;;;6.86;100.00
76592;BME280;65481;47.600;19.682;2024-01-06T16:05:58;99037.75;;;6.86;100.00
76592;BME280;65481;47.600;19.682;2024-01-06T16:10:59;99035.47;;;6.90;100.00
76592;BME280;65481;47.600;19.682;2024-01-06T16:16:00;99034.66;;;6.89;100.00
76592;BME280;65481;47.600;19.682;2024-01-06T16:21:01;99023.84;;;6.86;100.00
76592;BME280;65481;47.600;19.682;2024-01-06T16:26:02;99035.03;;;6.81;100.00
76592;BME280;65481;47.600;19.682;2024-01-06T16:31:03;99036.38;;;6.84;100.00
76592;BME280;65481;47.600;19.682;2024-01-06T16:36:04;99036.72;;;6.87;100.00
76592;BME280;65481;47.600;19.682;2024-01-06T16:41:08;99034.91;;;6.88;100.00
76592;BME280;65481;47.600;19.682;2024-01-06T16:46:09;99030.91;;;6.85;100.00
76592;BME280;65481;47.600;19.682;2024-01-06T16:51:09;99033.00;;;6.83;100.00
76592;BME280;65481;47.600;19.682;2024-01-06T16:56:10;99037.88;;;6.79;100.00
76592;BME280;65481;47.600;19.682;2024-01-06T17:01:10;99035.25;;;6.79;100.00
76592;BME280;65481;47.600;19.682;2024-01-06T17:06:12;99032.31;;;6.76;100.00
76592;BME280;65481;47.600;19.682;2024-01-06T17:11:12;99033.09;;;6.76;100.00
76592;BME280;65481;47.600;19.682;2024-01-06T17:16:15;99027.84;;;6.76;100.00
76592;BME280;65481;47.600;19.682;2024-01-06T17:21:15;99026.28;;;6.75;100.00
76592;BME280;65481;47.600;19.682;2024-01-06T17:26:16;99019.66;;;6.73;100.00
76592;BME280;65481;47.600;19.682;2024-01-06T17:31:17;99024.78;;;6.67;100.00
76592;BME280;65481;47.600;19.682;2024-01-06T17:36:17;99020.13;;;6.70;100.00
76592;BME280;65481;47.600;19.682;2024-01-06T17:41:18;99022.16;;;6.67;100.00
76592;BME280;65481;47.600;19.682;2024-01-06T17:46:18;99011.16;;;6.65;100.00
76592;BME280;65481;47.600;19.682;2024-01-06T17:51:22;99010.66;;;6.69;100.00
76592;BME280;65481;47.600;19.682;2024-01-06T17:56:24;99008.97;;;6.62;100.00
76592;BME280;65481;47.600;19.682;2024-01-06T18:01:26;99010.34;;;6.65;100.00
76592;BME280;65481;47.600;19.682;2024-01-06T18:06:26;99018.44;;;6.63;100.00
76592;BME280;65481;47.600;19.682;2024-01-06T18:11:28;99013.19;;;6.63;100.00
76592;BME280;65481;47.600;19.682;2024-01-06T18:16:28;99012.38;;;6.63;100.00
76592;BME280;65481;47.600;19.682;2024-01-06T18:21:29;99020.50;;;6.61;100.00
76592;BME280;65481;47.600;19.682;2024-01-06T18:26:29;99022.75;;;6.58;100.00
76592;BME280;65481;47.600;19.682;2024-01-06T18:31:30;99012.84;;;6.60;100.00
76592;BME280;65481;47.600;19.682;2024-01-06T18:36:31;99016.84;;;6.62;100.00
76592;BME280;65481;47.600;19.682;2024-01-06T18:41:32;99019.34;;;6.57;100.00
76592;BME280;65481;47.600;19.682;2024-01-06T18:46:33;99016.03;;;6.62;100.00
76592;BME280;65481;47.600;19.682;2024-01-06T18:51:34;99014.69;;;6.59;100.00
76592;BME280;65481;47.600;19.682;2024-01-06T18:56:37;99012.28;;;6.58;100.00
76592;BME280;65481;47.600;19.682;2024-01-06T19:01:38;99012.84;;;6.60;100.00
76592;BME280;65481;47.600;19.682;2024-01-06T19:06:38;99006.00;;;6.59;100.00
76592;BME280;65481;47.600;19.682;2024-01-06T19:11:42;98993.16;;;6.57;100.00
76592;BME280;65481;47.600;19.682;2024-01-06T19:16:42;98993.16;;;6.57;100.00
76592;BME280;65481;47.600;19.682;2024-01-06T19:21:46;98989.25;;;6.60;100.00
76592;BME280;65481;47.600;19.682;2024-01-06T19:26:46;98979.00;;;6.58;100.00
76592;BME280;65481;47.600;19.682;2024-01-06T19:31:47;98982.66;;;6.57;100.00
76592;BME280;65481;47.600;19.682;2024-01-06T19:36:47;98969.81;;;6.56;100.00
76592;BME280;65481;47.600;19.682;2024-01-06T19:41:48;98966.69;;;6.59;100.00
76592;BME280;65481;47.600;19.682;2024-01-06T19:46:48;98974.09;;;6.62;100.00
76592;BME280;65481;47.600;19.682;2024-01-06T19:51:49;98965.34;;;6.56;100.00
76592;BME280;65481;47.600;19.682;2024-01-06T19:56:50;98970.34;;;6.58;100.00
76592;BME280;65481;47.600;19.682;2024-01-06T20:01:51;98967.19;;;6.56;100.00
76592;BME280;65481;47.600;19.682;2024-01-06T20:06:51;98968.22;;;6.55;100.00
76592;BME280;65481;47.600;19.682;2024-01-06T20:11:52;98967.84;;;6.51;100.00
76592;BME280;65481;47.600;19.682;2024-01-06T20:16:53;98967.97;;;6.56;100.00
76592;BME280;65481;47.600;19.682;2024-01-06T20:21:54;98966.69;;;6.59;100.00
76592;BME280;65481;47.600;19.682;2024-01-06T20:26:55;98961.69;;;6.57;100.00
76592;BME280;65481;47.600;19.682;2024-01-06T20:31:55;98958.03;;;6.58;100.00
76592;BME280;65481;47.600;19.682;2024-01-06T20:36:56;98957.81;;;6.60;100.00
76592;BME280;65481;47.600;19.682;2024-01-06T20:41:56;98953.94;;;6.62;100.00
76592;BME280;65481;47.600;19.682;2024-01-06T20:46:57;98948.69;;;6.62;100.00
76592;BME280;65481;47.600;19.682;2024-01-06T20:51:59;98939.69;;;6.58;100.00
76592;BME280;65481;47.600;19.682;2024-01-06T20:56:59;98937.88;;;6.59;100.00
76592;BME280;65481;47.600;19.682;2024-01-06T21:01:59;98938.34;;;6.56;100.00
76592;BME280;65481;47.600;19.682;2024-01-06T21:07:02;98941.19;;;6.54;100.00
76592;BME280;65481;47.600;19.682;2024-01-06T21:12:03;98948.84;;;6.56;100.00
76592;BME280;65481;47.600;19.682;2024-01-06T21:17:04;98946.22;;;6.56;100.00
76592;BME280;65481;47.600;19.682;2024-01-06T21:22:04;98937.09;;;6.58;100.00
76592;BME280;65481;47.600;19.682;2024-01-06T21:27:05;98931.72;;;6.53;100.00
76592;BME280;65481;47.600;19.682;2024-01-06T21:32:06;98922.41;;;6.45;100.00
76592;BME280;65481;47.600;19.682;2024-01-06T21:37:07;98925.75;;;6.41;100.00
76592;BME280;65481;47.600;19.682;2024-01-06T21:42:07;98930.72;;;6.42;100.00
76592;BME280;65481;47.600;19.682;2024-01-06T21:47:08;98936.69;;;6.38;100.00
76592;BME280;65481;47.600;19.682;2024-01-06T21:52:09;98930.41;;;6.39;100.00
76592;BME280;65481;47.600;19.682;2024-01-06T21:57:09;98933.03;;;6.39;100.00
76592;BME280;65481;47.600;19.682;2024-01-06T22:02:10;98915.47;;;6.39;100.00
76592;BME280;65481;47.600;19.682;2024-01-06T22:07:10;98905.56;;;6.41;100.00
76592;BME280;65481;47.600;19.682;2024-01-06T22:12:10;98902.72;;;6.43;100.00
76592;BME280;65481;47.600;19.682;2024-01-06T22:17:13;98896.66;;;6.42;100.00
76592;BME280;65481;47.600;19.682;2024-01-06T22:22:14;98901.13;;;6.42;100.00
76592;BME280;65481;47.600;19.682;2024-01-06T22:27:14;98909.56;;;6.44;100.00
76592;BME280;65481;47.600;19.682;2024-01-06T22:32:15;98913.78;;;6.45;100.00
76592;BME280;65481;47.600;19.682;2024-01-06T22:37:16;98905.91;;;6.45;100.00
76592;BME280;65481;47.600;19.682;2024-01-06T22:42:16;98891.69;;;6.41;100.00
76592;BME280;65481;47.600;19.682;2024-01-06T22:47:17;98890.19;;;6.45;100.00
76592;BME280;65481;47.600;19.682;2024-01-06T22:52:18;98878.91;;;6.44;100.00
76592;BME280;65481;47.600;19.682;2024-01-06T22:57:18;98883.34;;;6.44;100.00
76592;BME280;65481;47.600;19.682;2024-01-06T23:02:18;98887.09;;;6.48;100.00
76592;BME280;65481;47.600;19.682;2024-01-06T23:07:19;98885.16;;;6.43;100.00
76592;BME280;65481;47.600;19.682;2024-01-06T23:12:20;98877.88;;;6.45;100.00
76592;BME280;65481;47.600;19.682;2024-01-06T23:17:20;98872.63;;;6.45;100.00
76592;BME280;65481;47.600;19.682;2024-01-06T23:22:21;98862.41;;;6.44;100.00
76592;BME280;65481;47.600;19.682;2024-01-06T23:27:21;98865.00;;;6.44;100.00
76592;BME280;65481;47.600;19.682;2024-01-06T23:32:22;98865.56;;;6.46;100.00
76592;BME280;65481;47.600;19.682;2024-01-06T23:37:23;98870.00;;;6.45;100.00
76592;BME280;65481;47.600;19.682;2024-01-06T23:42:25;98869.69;;;6.42;100.00
76592;BME280;65481;47.600;19.682;2024-01-06T23:47:26;98864.78;;;6.45;100.00
76592;BME280;65481;47.600;19.682;2024-01-06T23:52:26;98858.97;;;6.43;100.00
76592;BME280;65481;47.600;19.682;2024-01-06T23:57:27;98857.00;;;6.50;100.00
